Decoded Metar for YPGV (GOVE AIRPORT in AUSTRALIA) (IATA:N/A) | Meteo·Mobile Aviation Weather
aviador You're here:

YPGV Decoded Metar

GOVE AIRPORT in AUSTRALIA
Report Time2018-12-16 03:00:00
UTC Time2018-12-16 03:50:14
Flight Rules vfr VFR
Wind350° at 12 kt
W.Decomp.*RWY 31: 9.7 kt HW 7.1 kt RCW
W.Rank350° ranks 24
Current wind is above 350° avg. (7.1)
Visibility9999 m
Phenomena:N/A
Clouds:N/A
Expected CloudBase > 4,000 ft AGL from Temp-Dew spread
CeilingNone
Temp35°C (ISA +20)
Dew Point25°C (56% RH)
Heat Index43.2°C
QNH1006 hPa
Density Alt3,140 ft
Elevation180 ft
Report Wrong Elevation
Raw Report
YPGV 160300Z AUTO 35012KT 9999 // NCD 35/25 Q1006=

Extra information for YPGV:More info

Metar Taf Metar & Taf Last 4 Metars F.Rules Stats Wind Profile Meteogram Temp Stats Airport Information Weather charts Add Link Nearby VenuesMetar ALERT Operation Metar Decoded Social comments